sensor_id;sensor_type;location;lat;lon;timestamp;P1;durP1;ratioP1;P2;durP2;ratioP2
16179;SDS011;8196;49.428;10.906;2022-12-18T00:02:10;42.63;;;23.38;;
16179;SDS011;8196;49.428;10.906;2022-12-18T00:04:37;46.10;;;24.50;;
16179;SDS011;8196;49.428;10.906;2022-12-18T00:07:05;50.35;;;26.08;;
16179;SDS011;8196;49.428;10.906;2022-12-18T00:09:32;47.70;;;25.08;;
16179;SDS011;8196;49.428;10.906;2022-12-18T00:12:05;47.20;;;25.15;;
16179;SDS011;8196;49.428;10.906;2022-12-18T00:14:41;49.38;;;25.77;;
16179;SDS011;8196;49.428;10.906;2022-12-18T00:17:08;46.20;;;24.83;;
16179;SDS011;8196;49.428;10.906;2022-12-18T00:19:35;45.63;;;25.45;;
16179;SDS011;8196;49.428;10.906;2022-12-18T00:22:02;46.35;;;24.02;;
16179;SDS011;8196;49.428;10.906;2022-12-18T00:24:29;46.60;;;24.85;;
16179;SDS011;8196;49.428;10.906;2022-12-18T00:26:56;41.85;;;23.20;;
16179;SDS011;8196;49.428;10.906;2022-12-18T00:29:23;44.63;;;24.08;;
16179;SDS011;8196;49.428;10.906;2022-12-18T00:31:50;46.30;;;24.60;;
16179;SDS011;8196;49.428;10.906;2022-12-18T00:34:18;51.55;;;24.80;;
16179;SDS011;8196;49.428;10.906;2022-12-18T00:36:46;44.85;;;23.77;;
16179;SDS011;8196;49.428;10.906;2022-12-18T00:39:14;48.63;;;25.20;;
16179;SDS011;8196;49.428;10.906;2022-12-18T00:41:41;47.38;;;23.92;;
16179;SDS011;8196;49.428;10.906;2022-12-18T00:44:28;45.50;;;24.27;;
16179;SDS011;8196;49.428;10.906;2022-12-18T00:46:55;47.80;;;23.63;;
16179;SDS011;8196;49.428;10.906;2022-12-18T00:49:22;47.43;;;24.27;;
16179;SDS011;8196;49.428;10.906;2022-12-18T00:51:50;41.60;;;22.02;;
16179;SDS011;8196;49.428;10.906;2022-12-18T00:54:17;44.47;;;22.65;;
16179;SDS011;8196;49.428;10.906;2022-12-18T00:56:44;46.03;;;24.13;;
16179;SDS011;8196;49.428;10.906;2022-12-18T00:59:15;50.85;;;24.27;;
16179;SDS011;8196;49.428;10.906;2022-12-18T01:01:42;45.72;;;24.55;;
16179;SDS011;8196;49.428;10.906;2022-12-18T01:04:10;45.75;;;24.73;;
16179;SDS011;8196;49.428;10.906;2022-12-18T01:06:37;49.22;;;24.40;;
16179;SDS011;8196;49.428;10.906;2022-12-18T01:09:05;46.70;;;24.50;;
16179;SDS011;8196;49.428;10.906;2022-12-18T01:11:32;46.22;;;23.88;;
16179;SDS011;8196;49.428;10.906;2022-12-18T01:13:59;48.67;;;24.27;;
16179;SDS011;8196;49.428;10.906;2022-12-18T01:16:26;45.63;;;23.38;;
16179;SDS011;8196;49.428;10.906;2022-12-18T01:18:54;47.30;;;24.35;;
16179;SDS011;8196;49.428;10.906;2022-12-18T01:21:21;43.45;;;22.90;;
16179;SDS011;8196;49.428;10.906;2022-12-18T01:23:56;41.40;;;22.23;;
16179;SDS011;8196;49.428;10.906;2022-12-18T01:26:24;46.70;;;23.92;;
16179;SDS011;8196;49.428;10.906;2022-12-18T01:28:51;42.08;;;22.70;;
16179;SDS011;8196;49.428;10.906;2022-12-18T01:33:46;40.00;;;22.77;;
16179;SDS011;8196;49.428;10.906;2022-12-18T01:36:14;42.25;;;22.25;;
16179;SDS011;8196;49.428;10.906;2022-12-18T01:38:42;42.50;;;22.33;;
16179;SDS011;8196;49.428;10.906;2022-12-18T01:41:09;45.08;;;23.48;;
16179;SDS011;8196;49.428;10.906;2022-12-18T01:43:40;43.10;;;23.05;;
16179;SDS011;8196;49.428;10.906;2022-12-18T01:46:07;44.63;;;23.63;;
16179;SDS011;8196;49.428;10.906;2022-12-18T01:48:35;44.58;;;22.40;;
16179;SDS011;8196;49.428;10.906;2022-12-18T01:51:02;39.33;;;21.88;;
16179;SDS011;8196;49.428;10.906;2022-12-18T01:53:31;45.70;;;22.70;;
16179;SDS011;8196;49.428;10.906;2022-12-18T01:55:58;40.65;;;22.15;;
16179;SDS011;8196;49.428;10.906;2022-12-18T01:58:32;44.80;;;23.05;;
16179;SDS011;8196;49.428;10.906;2022-12-18T02:01:02;48.03;;;23.90;;
16179;SDS011;8196;49.428;10.906;2022-12-18T02:03:30;46.90;;;23.35;;
16179;SDS011;8196;49.428;10.906;2022-12-18T02:11:04;45.58;;;22.23;;
16179;SDS011;8196;49.428;10.906;2022-12-18T02:13:38;44.15;;;24.38;;
16179;SDS011;8196;49.428;10.906;2022-12-18T02:18:40;45.17;;;24.05;;
16179;SDS011;8196;49.428;10.906;2022-12-18T02:21:12;45.53;;;23.85;;
16179;SDS011;8196;49.428;10.906;2022-12-18T02:23:48;47.53;;;24.33;;
16179;SDS011;8196;49.428;10.906;2022-12-18T02:29:06;42.50;;;23.40;;
16179;SDS011;8196;49.428;10.906;2022-12-18T02:31:37;44.47;;;24.03;;
16179;SDS011;8196;49.428;10.906;2022-12-18T02:34:06;45.90;;;23.05;;
16179;SDS011;8196;49.428;10.906;2022-12-18T02:36:34;44.50;;;22.75;;
16179;SDS011;8196;49.428;10.906;2022-12-18T02:39:03;46.03;;;24.08;;
16179;SDS011;8196;49.428;10.906;2022-12-18T02:41:32;47.63;;;23.83;;
16179;SDS011;8196;49.428;10.906;2022-12-18T02:44:06;45.25;;;22.40;;
16179;SDS011;8196;49.428;10.906;2022-12-18T02:46:36;49.33;;;25.08;;
16179;SDS011;8196;49.428;10.906;2022-12-18T02:51:52;52.50;;;26.10;;
16179;SDS011;8196;49.428;10.906;2022-12-18T02:54:24;51.83;;;24.85;;
16179;SDS011;8196;49.428;10.906;2022-12-18T02:56:55;44.72;;;23.25;;
16179;SDS011;8196;49.428;10.906;2022-12-18T03:02:17;46.25;;;24.92;;
16179;SDS011;8196;49.428;10.906;2022-12-18T03:04:48;41.45;;;22.55;;
16179;SDS011;8196;49.428;10.906;2022-12-18T03:07:18;43.80;;;23.55;;
16179;SDS011;8196;49.428;10.906;2022-12-18T03:09:47;43.45;;;23.50;;
16179;SDS011;8196;49.428;10.906;2022-12-18T03:12:27;44.70;;;23.40;;
16179;SDS011;8196;49.428;10.906;2022-12-18T03:17:30;43.55;;;23.50;;
16179;SDS011;8196;49.428;10.906;2022-12-18T03:19:59;40.63;;;23.63;;
16179;SDS011;8196;49.428;10.906;2022-12-18T03:22:29;45.10;;;23.38;;
16179;SDS011;8196;49.428;10.906;2022-12-18T03:24:57;44.72;;;23.38;;
16179;SDS011;8196;49.428;10.906;2022-12-18T03:27:25;42.63;;;24.60;;
16179;SDS011;8196;49.428;10.906;2022-12-18T03:29:57;39.70;;;23.13;;
16179;SDS011;8196;49.428;10.906;2022-12-18T03:32:35;44.10;;;23.73;;
16179;SDS011;8196;49.428;10.906;2022-12-18T03:35:05;36.38;;;21.98;;
16179;SDS011;8196;49.428;10.906;2022-12-18T03:37:34;39.38;;;22.52;;
16179;SDS011;8196;49.428;10.906;2022-12-18T03:40:02;41.63;;;23.30;;
16179;SDS011;8196;49.428;10.906;2022-12-18T03:42:32;42.47;;;22.83;;
16179;SDS011;8196;49.428;10.906;2022-12-18T03:45:07;45.63;;;24.30;;
16179;SDS011;8196;49.428;10.906;2022-12-18T03:47:39;43.37;;;23.67;;
16179;SDS011;8196;49.428;10.906;2022-12-18T03:53:14;42.95;;;22.95;;
16179;SDS011;8196;49.428;10.906;2022-12-18T03:55:42;44.70;;;23.52;;
16179;SDS011;8196;49.428;10.906;2022-12-18T03:58:10;46.95;;;23.65;;
16179;SDS011;8196;49.428;10.906;2022-12-18T04:00:39;48.50;;;25.40;;
16179;SDS011;8196;49.428;10.906;2022-12-18T04:03:07;41.70;;;22.45;;
16179;SDS011;8196;49.428;10.906;2022-12-18T04:05:35;49.03;;;25.30;;
16179;SDS011;8196;49.428;10.906;2022-12-18T04:08:03;45.42;;;25.02;;
16179;SDS011;8196;49.428;10.906;2022-12-18T04:10:31;42.97;;;23.02;;
16179;SDS011;8196;49.428;10.906;2022-12-18T04:12:58;42.53;;;23.30;;
16179;SDS011;8196;49.428;10.906;2022-12-18T04:15:25;41.08;;;22.23;;
16179;SDS011;8196;49.428;10.906;2022-12-18T04:17:52;39.75;;;21.95;;
16179;SDS011;8196;49.428;10.906;2022-12-18T04:20:20;38.72;;;21.85;;
16179;SDS011;8196;49.428;10.906;2022-12-18T04:22:47;42.13;;;21.87;;
16179;SDS011;8196;49.428;10.906;2022-12-18T04:25:14;40.50;;;22.95;;
16179;SDS011;8196;49.428;10.906;2022-12-18T04:27:41;45.60;;;22.52;;
16179;SDS011;8196;49.428;10.906;2022-12-18T04:30:08;45.28;;;22.50;;
16179;SDS011;8196;49.428;10.906;2022-12-18T04:32:35;42.42;;;22.55;;
16179;SDS011;8196;49.428;10.906;2022-12-18T04:35:03;42.75;;;22.88;;
16179;SDS011;8196;49.428;10.906;2022-12-18T04:37:32;41.20;;;23.42;;
16179;SDS011;8196;49.428;10.906;2022-12-18T04:39:59;45.28;;;23.15;;
16179;SDS011;8196;49.428;10.906;2022-12-18T04:42:26;40.20;;;22.38;;
16179;SDS011;8196;49.428;10.906;2022-12-18T04:44:53;39.42;;;22.60;;
16179;SDS011;8196;49.428;10.906;2022-12-18T04:47:20;44.22;;;23.83;;
16179;SDS011;8196;49.428;10.906;2022-12-18T04:49:47;45.17;;;23.42;;
16179;SDS011;8196;49.428;10.906;2022-12-18T04:52:15;41.20;;;22.55;;
16179;SDS011;8196;49.428;10.906;2022-12-18T04:54:42;47.15;;;24.40;;
16179;SDS011;8196;49.428;10.906;2022-12-18T04:57:09;46.92;;;25.10;;
16179;SDS011;8196;49.428;10.906;2022-12-18T04:59:36;43.40;;;23.40;;
16179;SDS011;8196;49.428;10.906;2022-12-18T05:02:03;43.97;;;23.38;;
16179;SDS011;8196;49.428;10.906;2022-12-18T05:04:30;44.47;;;24.15;;
16179;SDS011;8196;49.428;10.906;2022-12-18T05:06:57;41.85;;;22.70;;
16179;SDS011;8196;49.428;10.906;2022-12-18T05:09:24;42.73;;;23.97;;
16179;SDS011;8196;49.428;10.906;2022-12-18T05:11:52;39.40;;;22.63;;
16179;SDS011;8196;49.428;10.906;2022-12-18T05:14:19;41.50;;;23.17;;
16179;SDS011;8196;49.428;10.906;2022-12-18T05:16:46;44.97;;;23.48;;
16179;SDS011;8196;49.428;10.906;2022-12-18T05:19:13;41.15;;;22.38;;
16179;SDS011;8196;49.428;10.906;2022-12-18T05:21:41;41.90;;;22.65;;
16179;SDS011;8196;49.428;10.906;2022-12-18T05:24:08;41.05;;;22.67;;
16179;SDS011;8196;49.428;10.906;2022-12-18T05:26:35;40.10;;;21.63;;
16179;SDS011;8196;49.428;10.906;2022-12-18T05:29:02;40.83;;;21.20;;
16179;SDS011;8196;49.428;10.906;2022-12-18T05:31:29;42.30;;;22.00;;
16179;SDS011;8196;49.428;10.906;2022-12-18T05:34:04;45.78;;;24.15;;
16179;SDS011;8196;49.428;10.906;2022-12-18T05:36:32;42.30;;;21.83;;
16179;SDS011;8196;49.428;10.906;2022-12-18T05:38:59;41.58;;;22.27;;
16179;SDS011;8196;49.428;10.906;2022-12-18T05:41:27;39.85;;;21.40;;
16179;SDS011;8196;49.428;10.906;2022-12-18T05:43:54;42.20;;;21.88;;
16179;SDS011;8196;49.428;10.906;2022-12-18T05:46:21;41.60;;;21.60;;
16179;SDS011;8196;49.428;10.906;2022-12-18T05:48:50;37.10;;;19.67;;
16179;SDS011;8196;49.428;10.906;2022-12-18T05:51:18;41.78;;;21.63;;
16179;SDS011;8196;49.428;10.906;2022-12-18T05:53:46;36.85;;;20.55;;
16179;SDS011;8196;49.428;10.906;2022-12-18T05:56:15;39.38;;;20.83;;
16179;SDS011;8196;49.428;10.906;2022-12-18T05:58:43;44.03;;;22.48;;
16179;SDS011;8196;49.428;10.906;2022-12-18T06:03:37;36.40;;;18.30;;
16179;SDS011;8196;49.428;10.906;2022-12-18T06:06:22;38.78;;;21.02;;
16179;SDS011;8196;49.428;10.906;2022-12-18T06:08:50;39.97;;;21.30;;
16179;SDS011;8196;49.428;10.906;2022-12-18T06:11:18;37.75;;;20.17;;
16179;SDS011;8196;49.428;10.906;2022-12-18T06:13:46;41.63;;;21.10;;
16179;SDS011;8196;49.428;10.906;2022-12-18T06:16:13;34.75;;;19.05;;
16179;SDS011;8196;49.428;10.906;2022-12-18T06:18:40;34.55;;;17.73;;
16179;SDS011;8196;49.428;10.906;2022-12-18T06:21:07;32.65;;;17.25;;
16179;SDS011;8196;49.428;10.906;2022-12-18T06:23:34;36.63;;;18.80;;
16179;SDS011;8196;49.428;10.906;2022-12-18T06:26:06;31.80;;;17.27;;
16179;SDS011;8196;49.428;10.906;2022-12-18T06:28:33;30.33;;;16.63;;
16179;SDS011;8196;49.428;10.906;2022-12-18T06:31:01;32.85;;;17.67;;
16179;SDS011;8196;49.428;10.906;2022-12-18T06:33:29;35.63;;;19.52;;
16179;SDS011;8196;49.428;10.906;2022-12-18T06:36:04;33.03;;;16.52;;
16179;SDS011;8196;49.428;10.906;2022-12-18T06:38:33;30.08;;;14.95;;
16179;SDS011;8196;49.428;10.906;2022-12-18T06:41:00;30.52;;;15.95;;
16179;SDS011;8196;49.428;10.906;2022-12-18T06:43:27;31.67;;;15.50;;
16179;SDS011;8196;49.428;10.906;2022-12-18T06:45:59;30.57;;;15.70;;
16179;SDS011;8196;49.428;10.906;2022-12-18T06:48:26;27.63;;;15.18;;
16179;SDS011;8196;49.428;10.906;2022-12-18T06:50:53;30.43;;;15.37;;
16179;SDS011;8196;49.428;10.906;2022-12-18T06:53:21;29.42;;;15.50;;
16179;SDS011;8196;49.428;10.906;2022-12-18T06:55:48;27.83;;;14.55;;
16179;SDS011;8196;49.428;10.906;2022-12-18T06:58:15;30.10;;;15.63;;
16179;SDS011;8196;49.428;10.906;2022-12-18T07:00:42;29.42;;;15.35;;
16179;SDS011;8196;49.428;10.906;2022-12-18T07:03:09;31.17;;;15.25;;
16179;SDS011;8196;49.428;10.906;2022-12-18T07:05:40;29.40;;;15.25;;
16179;SDS011;8196;49.428;10.906;2022-12-18T07:08:07;31.33;;;15.23;;
16179;SDS011;8196;49.428;10.906;2022-12-18T07:10:42;30.23;;;15.93;;
16179;SDS011;8196;49.428;10.906;2022-12-18T07:13:14;33.55;;;15.88;;
16179;SDS011;8196;49.428;10.906;2022-12-18T07:15:41;28.85;;;14.73;;
16179;SDS011;8196;49.428;10.906;2022-12-18T07:18:08;30.55;;;15.15;;
16179;SDS011;8196;49.428;10.906;2022-12-18T07:20:36;29.38;;;14.88;;
16179;SDS011;8196;49.428;10.906;2022-12-18T07:23:03;28.27;;;14.75;;
16179;SDS011;8196;49.428;10.906;2022-12-18T07:25:34;28.52;;;14.85;;
16179;SDS011;8196;49.428;10.906;2022-12-18T07:28:01;30.67;;;16.38;;
16179;SDS011;8196;49.428;10.906;2022-12-18T07:30:28;29.05;;;14.93;;
16179;SDS011;8196;49.428;10.906;2022-12-18T07:32:56;25.45;;;14.07;;
16179;SDS011;8196;49.428;10.906;2022-12-18T07:35:23;28.70;;;15.53;;
16179;SDS011;8196;49.428;10.906;2022-12-18T07:37:50;29.00;;;15.70;;
16179;SDS011;8196;49.428;10.906;2022-12-18T07:40:18;28.23;;;14.95;;
16179;SDS011;8196;49.428;10.906;2022-12-18T07:42:45;28.77;;;15.10;;
16179;SDS011;8196;49.428;10.906;2022-12-18T07:45:12;27.35;;;14.55;;
16179;SDS011;8196;49.428;10.906;2022-12-18T07:47:39;25.80;;;14.32;;
16179;SDS011;8196;49.428;10.906;2022-12-18T07:50:07;28.25;;;15.20;;
16179;SDS011;8196;49.428;10.906;2022-12-18T07:52:34;26.58;;;14.85;;
16179;SDS011;8196;49.428;10.906;2022-12-18T07:55:01;25.95;;;14.27;;
16179;SDS011;8196;49.428;10.906;2022-12-18T07:57:29;26.08;;;13.80;;
16179;SDS011;8196;49.428;10.906;2022-12-18T08:00:16;24.58;;;13.15;;
16179;SDS011;8196;49.428;10.906;2022-12-18T08:02:43;25.45;;;13.38;;
16179;SDS011;8196;49.428;10.906;2022-12-18T08:05:10;25.48;;;14.18;;
16179;SDS011;8196;49.428;10.906;2022-12-18T08:07:37;23.88;;;12.50;;
16179;SDS011;8196;49.428;10.906;2022-12-18T08:10:05;23.15;;;13.00;;
16179;SDS011;8196;49.428;10.906;2022-12-18T08:12:32;24.52;;;13.45;;
16179;SDS011;8196;49.428;10.906;2022-12-18T08:15:00;23.25;;;13.13;;
16179;SDS011;8196;49.428;10.906;2022-12-18T08:17:27;29.87;;;15.87;;
16179;SDS011;8196;49.428;10.906;2022-12-18T08:19:54;21.23;;;11.85;;
16179;SDS011;8196;49.428;10.906;2022-12-18T08:22:21;20.92;;;11.65;;
16179;SDS011;8196;49.428;10.906;2022-12-18T08:24:49;25.85;;;15.60;;
16179;SDS011;8196;49.428;10.906;2022-12-18T08:27:16;21.92;;;11.95;;
16179;SDS011;8196;49.428;10.906;2022-12-18T08:29:58;21.58;;;11.90;;
16179;SDS011;8196;49.428;10.906;2022-12-18T08:32:25;20.02;;;11.50;;
16179;SDS011;8196;49.428;10.906;2022-12-18T08:34:53;22.73;;;13.73;;
16179;SDS011;8196;49.428;10.906;2022-12-18T08:37:19;22.42;;;12.55;;
16179;SDS011;8196;49.428;10.906;2022-12-18T08:39:46;22.20;;;13.33;;
16179;SDS011;8196;49.428;10.906;2022-12-18T08:42:13;22.13;;;12.68;;
16179;SDS011;8196;49.428;10.906;2022-12-18T08:45:00;21.70;;;12.63;;
16179;SDS011;8196;49.428;10.906;2022-12-18T08:47:27;26.87;;;16.63;;
16179;SDS011;8196;49.428;10.906;2022-12-18T08:49:54;21.35;;;12.25;;
16179;SDS011;8196;49.428;10.906;2022-12-18T08:52:21;23.70;;;13.63;;
16179;SDS011;8196;49.428;10.906;2022-12-18T08:54:47;20.27;;;12.25;;
16179;SDS011;8196;49.428;10.906;2022-12-18T08:57:14;21.60;;;12.53;;
16179;SDS011;8196;49.428;10.906;2022-12-18T08:59:42;20.35;;;11.90;;
16179;SDS011;8196;49.428;10.906;2022-12-18T09:02:11;22.63;;;11.75;;
16179;SDS011;8196;49.428;10.906;2022-12-18T09:04:38;19.07;;;11.27;;
16179;SDS011;8196;49.428;10.906;2022-12-18T09:07:06;22.60;;;12.38;;
16179;SDS011;8196;49.428;10.906;2022-12-18T09:09:32;21.92;;;12.90;;
16179;SDS011;8196;49.428;10.906;2022-12-18T09:11:59;19.90;;;12.20;;
16179;SDS011;8196;49.428;10.906;2022-12-18T09:14:26;19.67;;;12.20;;
16179;SDS011;8196;49.428;10.906;2022-12-18T09:16:53;19.23;;;12.13;;
16179;SDS011;8196;49.428;10.906;2022-12-18T09:19:19;23.90;;;11.93;;
16179;SDS011;8196;49.428;10.906;2022-12-18T09:21:46;19.42;;;11.45;;
16179;SDS011;8196;49.428;10.906;2022-12-18T09:24:14;21.08;;;12.35;;
16179;SDS011;8196;49.428;10.906;2022-12-18T09:26:41;20.80;;;12.55;;
16179;SDS011;8196;49.428;10.906;2022-12-18T09:29:14;20.67;;;12.48;;
16179;SDS011;8196;49.428;10.906;2022-12-18T09:31:44;21.60;;;12.23;;
16179;SDS011;8196;49.428;10.906;2022-12-18T09:34:11;20.42;;;12.45;;
16179;SDS011;8196;49.428;10.906;2022-12-18T09:36:37;21.38;;;12.40;;
16179;SDS011;8196;49.428;10.906;2022-12-18T09:39:04;20.85;;;12.43;;
16179;SDS011;8196;49.428;10.906;2022-12-18T09:46:38;21.88;;;12.55;;
16179;SDS011;8196;49.428;10.906;2022-12-18T09:49:12;21.48;;;12.63;;
16179;SDS011;8196;49.428;10.906;2022-12-18T09:51:45;21.27;;;11.77;;
16179;SDS011;8196;49.428;10.906;2022-12-18T09:54:20;21.80;;;13.65;;
16179;SDS011;8196;49.428;10.906;2022-12-18T09:56:52;20.90;;;13.52;;
16179;SDS011;8196;49.428;10.906;2022-12-18T09:59:29;22.40;;;13.80;;
16179;SDS011;8196;49.428;10.906;2022-12-18T10:02:10;22.02;;;14.20;;
16179;SDS011;8196;49.428;10.906;2022-12-18T10:04:39;21.98;;;13.73;;
16179;SDS011;8196;49.428;10.906;2022-12-18T10:07:24;25.20;;;14.82;;
16179;SDS011;8196;49.428;10.906;2022-12-18T10:10:00;21.85;;;13.60;;
16179;SDS011;8196;49.428;10.906;2022-12-18T10:20:49;20.60;;;12.40;;
16179;SDS011;8196;49.428;10.906;2022-12-18T10:26:13;20.10;;;11.95;;
16179;SDS011;8196;49.428;10.906;2022-12-18T10:28:41;21.50;;;13.05;;
16179;SDS011;8196;49.428;10.906;2022-12-18T10:31:13;21.38;;;13.27;;
16179;SDS011;8196;49.428;10.906;2022-12-18T10:33:44;19.80;;;12.30;;
16179;SDS011;8196;49.428;10.906;2022-12-18T10:36:11;20.60;;;12.48;;
16179;SDS011;8196;49.428;10.906;2022-12-18T10:38:38;21.33;;;12.68;;
16179;SDS011;8196;49.428;10.906;2022-12-18T10:41:08;22.25;;;13.20;;
16179;SDS011;8196;49.428;10.906;2022-12-18T10:44:10;21.20;;;13.07;;
16179;SDS011;8196;49.428;10.906;2022-12-18T10:46:41;21.75;;;13.25;;
16179;SDS011;8196;49.428;10.906;2022-12-18T10:49:18;21.83;;;13.00;;
16179;SDS011;8196;49.428;10.906;2022-12-18T10:51:48;18.95;;;12.85;;
16179;SDS011;8196;49.428;10.906;2022-12-18T10:54:16;23.77;;;14.27;;
16179;SDS011;8196;49.428;10.906;2022-12-18T10:56:45;22.98;;;13.60;;
16179;SDS011;8196;49.428;10.906;2022-12-18T10:59:13;20.92;;;13.18;;
16179;SDS011;8196;49.428;10.906;2022-12-18T11:01:50;22.13;;;13.43;;
16179;SDS011;8196;49.428;10.906;2022-12-18T11:04:21;23.13;;;14.40;;
16179;SDS011;8196;49.428;10.906;2022-12-18T11:06:53;23.40;;;14.55;;
16179;SDS011;8196;49.428;10.906;2022-12-18T11:09:23;23.30;;;13.90;;
16179;SDS011;8196;49.428;10.906;2022-12-18T11:11:54;22.33;;;13.88;;
16179;SDS011;8196;49.428;10.906;2022-12-18T11:14:24;21.58;;;13.35;;
16179;SDS011;8196;49.428;10.906;2022-12-18T11:16:54;23.15;;;13.70;;
16179;SDS011;8196;49.428;10.906;2022-12-18T11:19:42;22.10;;;13.48;;
16179;SDS011;8196;49.428;10.906;2022-12-18T11:24:56;23.27;;;14.40;;
16179;SDS011;8196;49.428;10.906;2022-12-18T11:27:52;21.50;;;15.15;;
16179;SDS011;8196;49.428;10.906;2022-12-18T11:32:52;22.33;;;15.82;;
16179;SDS011;8196;49.428;10.906;2022-12-18T11:40:40;27.27;;;18.85;;
16179;SDS011;8196;49.428;10.906;2022-12-18T11:43:11;23.33;;;17.00;;
16179;SDS011;8196;49.428;10.906;2022-12-18T11:45:49;21.30;;;15.82;;
16179;SDS011;8196;49.428;10.906;2022-12-18T11:48:25;20.63;;;15.10;;
16179;SDS011;8196;49.428;10.906;2022-12-18T11:50:57;20.30;;;14.93;;
16179;SDS011;8196;49.428;10.906;2022-12-18T11:53:26;21.27;;;14.68;;
16179;SDS011;8196;49.428;10.906;2022-12-18T12:04:07;19.98;;;14.68;;
16179;SDS011;8196;49.428;10.906;2022-12-18T12:14:28;20.60;;;14.70;;
16179;SDS011;8196;49.428;10.906;2022-12-18T12:17:04;20.90;;;15.60;;
16179;SDS011;8196;49.428;10.906;2022-12-18T12:22:24;28.73;;;19.02;;
16179;SDS011;8196;49.428;10.906;2022-12-18T12:30:18;22.15;;;15.93;;
16179;SDS011;8196;49.428;10.906;2022-12-18T12:35:45;24.70;;;17.88;;
16179;SDS011;8196;49.428;10.906;2022-12-18T12:41:02;28.07;;;18.87;;
16179;SDS011;8196;49.428;10.906;2022-12-18T12:46:05;23.98;;;16.52;;
16179;SDS011;8196;49.428;10.906;2022-12-18T12:48:49;23.45;;;16.10;;
16179;SDS011;8196;49.428;10.906;2022-12-18T12:51:20;23.17;;;15.20;;
16179;SDS011;8196;49.428;10.906;2022-12-18T12:53:48;23.00;;;16.05;;
16179;SDS011;8196;49.428;10.906;2022-12-18T12:56:16;23.88;;;16.63;;
16179;SDS011;8196;49.428;10.906;2022-12-18T13:01:17;21.42;;;15.10;;
16179;SDS011;8196;49.428;10.906;2022-12-18T13:03:56;22.45;;;15.98;;
16179;SDS011;8196;49.428;10.906;2022-12-18T13:09:09;23.52;;;16.00;;
16179;SDS011;8196;49.428;10.906;2022-12-18T13:11:38;23.33;;;15.98;;
16179;SDS011;8196;49.428;10.906;2022-12-18T13:19:43;24.75;;;16.95;;
16179;SDS011;8196;49.428;10.906;2022-12-18T13:25:01;22.67;;;16.25;;
16179;SDS011;8196;49.428;10.906;2022-12-18T13:30:36;21.98;;;12.68;;
16179;SDS011;8196;49.428;10.906;2022-12-18T13:33:32;21.98;;;14.23;;
16179;SDS011;8196;49.428;10.906;2022-12-18T13:41:02;24.35;;;14.52;;
16179;SDS011;8196;49.428;10.906;2022-12-18T13:43:46;21.80;;;14.15;;
16179;SDS011;8196;49.428;10.906;2022-12-18T13:48:51;22.92;;;13.52;;
16179;SDS011;8196;49.428;10.906;2022-12-18T13:51:29;25.85;;;15.98;;
16179;SDS011;8196;49.428;10.906;2022-12-18T13:54:00;24.92;;;14.45;;
16179;SDS011;8196;49.428;10.906;2022-12-18T13:56:32;24.50;;;15.10;;
16179;SDS011;8196;49.428;10.906;2022-12-18T13:59:05;24.63;;;14.50;;
16179;SDS011;8196;49.428;10.906;2022-12-18T14:01:42;24.65;;;14.57;;
16179;SDS011;8196;49.428;10.906;2022-12-18T14:04:12;27.38;;;16.25;;
16179;SDS011;8196;49.428;10.906;2022-12-18T14:06:49;26.77;;;16.00;;
16179;SDS011;8196;49.428;10.906;2022-12-18T14:09:21;27.48;;;16.17;;
16179;SDS011;8196;49.428;10.906;2022-12-18T14:11:55;24.38;;;14.90;;
16179;SDS011;8196;49.428;10.906;2022-12-18T14:14:44;24.40;;;14.82;;
16179;SDS011;8196;49.428;10.906;2022-12-18T14:17:15;24.47;;;14.67;;
16179;SDS011;8196;49.428;10.906;2022-12-18T14:19:44;24.95;;;15.02;;
16179;SDS011;8196;49.428;10.906;2022-12-18T14:22:14;23.42;;;14.85;;
16179;SDS011;8196;49.428;10.906;2022-12-18T14:24:43;25.42;;;15.35;;
16179;SDS011;8196;49.428;10.906;2022-12-18T14:27:12;23.23;;;13.98;;
16179;SDS011;8196;49.428;10.906;2022-12-18T14:29:48;24.83;;;14.17;;
16179;SDS011;8196;49.428;10.906;2022-12-18T14:32:17;24.15;;;15.57;;
16179;SDS011;8196;49.428;10.906;2022-12-18T14:34:47;24.13;;;14.35;;
16179;SDS011;8196;49.428;10.906;2022-12-18T14:37:17;26.95;;;15.32;;
16179;SDS011;8196;49.428;10.906;2022-12-18T14:42:24;26.92;;;16.08;;
16179;SDS011;8196;49.428;10.906;2022-12-18T14:48:07;28.20;;;16.65;;
16179;SDS011;8196;49.428;10.906;2022-12-18T14:50:38;32.88;;;19.27;;
16179;SDS011;8196;49.428;10.906;2022-12-18T14:53:04;32.27;;;19.70;;
16179;SDS011;8196;49.428;10.906;2022-12-18T14:55:31;31.23;;;19.80;;
16179;SDS011;8196;49.428;10.906;2022-12-18T14:57:58;31.10;;;18.40;;
16179;SDS011;8196;49.428;10.906;2022-12-18T15:00:25;30.02;;;18.27;;
16179;SDS011;8196;49.428;10.906;2022-12-18T15:02:53;30.67;;;17.23;;
16179;SDS011;8196;49.428;10.906;2022-12-18T15:05:29;27.73;;;16.85;;
16179;SDS011;8196;49.428;10.906;2022-12-18T15:07:58;29.60;;;17.50;;
16179;SDS011;8196;49.428;10.906;2022-12-18T15:10:27;28.08;;;17.40;;
16179;SDS011;8196;49.428;10.906;2022-12-18T15:20:43;28.23;;;16.15;;
16179;SDS011;8196;49.428;10.906;2022-12-18T15:23:35;29.70;;;16.30;;
16179;SDS011;8196;49.428;10.906;2022-12-18T15:26:11;26.93;;;15.63;;
16179;SDS011;8196;49.428;10.906;2022-12-18T15:31:29;27.85;;;16.20;;
16179;SDS011;8196;49.428;10.906;2022-12-18T15:34:00;26.90;;;15.50;;
16179;SDS011;8196;49.428;10.906;2022-12-18T15:36:36;29.98;;;16.35;;
16179;SDS011;8196;49.428;10.906;2022-12-18T15:39:03;26.08;;;15.93;;
16179;SDS011;8196;49.428;10.906;2022-12-18T15:41:32;24.95;;;15.13;;
16179;SDS011;8196;49.428;10.906;2022-12-18T15:44:01;27.52;;;16.05;;
16179;SDS011;8196;49.428;10.906;2022-12-18T15:46:29;28.80;;;16.40;;
16179;SDS011;8196;49.428;10.906;2022-12-18T15:48:57;28.65;;;16.27;;
16179;SDS011;8196;49.428;10.906;2022-12-18T15:51:31;27.38;;;16.15;;
16179;SDS011;8196;49.428;10.906;2022-12-18T15:54:01;30.50;;;17.42;;
16179;SDS011;8196;49.428;10.906;2022-12-18T15:56:30;28.38;;;17.58;;
16179;SDS011;8196;49.428;10.906;2022-12-18T15:59:18;29.50;;;18.08;;
16179;SDS011;8196;49.428;10.906;2022-12-18T16:01:47;26.60;;;16.25;;
16179;SDS011;8196;49.428;10.906;2022-12-18T16:04:17;28.95;;;16.67;;
16179;SDS011;8196;49.428;10.906;2022-12-18T16:06:47;29.10;;;16.85;;
16179;SDS011;8196;49.428;10.906;2022-12-18T16:09:34;29.45;;;17.38;;
16179;SDS011;8196;49.428;10.906;2022-12-18T16:12:13;26.98;;;16.73;;
16179;SDS011;8196;49.428;10.906;2022-12-18T16:14:43;35.95;;;20.70;;
16179;SDS011;8196;49.428;10.906;2022-12-18T16:17:11;36.20;;;20.60;;
16179;SDS011;8196;49.428;10.906;2022-12-18T16:19:39;33.33;;;20.23;;
16179;SDS011;8196;49.428;10.906;2022-12-18T16:22:08;31.65;;;19.20;;
16179;SDS011;8196;49.428;10.906;2022-12-18T16:24:46;33.05;;;19.95;;
16179;SDS011;8196;49.428;10.906;2022-12-18T16:27:12;32.78;;;20.20;;
16179;SDS011;8196;49.428;10.906;2022-12-18T16:29:39;33.42;;;21.05;;
16179;SDS011;8196;49.428;10.906;2022-12-18T16:32:06;30.70;;;18.85;;
16179;SDS011;8196;49.428;10.906;2022-12-18T16:34:34;31.15;;;18.08;;
16179;SDS011;8196;49.428;10.906;2022-12-18T16:37:02;29.48;;;18.73;;
16179;SDS011;8196;49.428;10.906;2022-12-18T16:39:32;29.77;;;17.42;;
16179;SDS011;8196;49.428;10.906;2022-12-18T16:42:01;33.40;;;18.75;;
16179;SDS011;8196;49.428;10.906;2022-12-18T16:44:31;32.60;;;18.02;;